Time;durP1;ratioP1;P1;durP2;ratioP2;P2;SDS_P1;SDS_P2;PMS_P1;PMS_P2;Temp;Humidity;BMP_temperature;BMP_pressure;BME280_temperature;BME280_humidity;BME280_pressure;Samples;Min_cycle;Max_cycle;Signal;HPM_P1;HPM_P2
2022/03/14 00:01:30;;;;;;;7.90;4.92;;;;;;;4.10;34.50;97445.06;1758259;80;21361;-78
2022/03/14 00:03:58;;;;;;;6.70;5.78;;;;;;;4.20;33.50;97447.27;1724604;82;20956;-78
2022/03/14 00:06:25;;;;;;;7.97;5.60;;;;;;;4.33;33.55;97446.34;1754791;80;21457;-78
2022/03/14 00:08:57;;;;;;;8.00;6.35;;;;;;;4.47;32.68;97444.36;1772173;80;21066;-78
2022/03/14 00:11:19;;;;;;;7.12;5.28;;;;;;;4.63;32.68;97441.89;1755999;80;20973;-78
2022/03/14 00:13:46;;;;;;;6.25;4.28;;;;;;;4.68;32.43;97439.77;1760912;80;21110;-78
2022/03/14 00:16:15;;;;;;;7.00;4.55;;;;;;;4.77;31.57;97446.33;1767069;80;21067;-78
2022/03/14 00:18:44;;;;;;;6.03;4.42;;;;;;;4.82;32.02;97444.67;1763004;80;21050;-78
2022/03/14 00:21:09;;;;;;;6.75;4.45;;;;;;;4.85;31.19;97435.41;1770572;80;21340;-78
2022/03/14 00:23:35;;;;;;;5.60;4.42;;;;;;;4.91;30.32;97441.39;1761072;80;21042;-78
2022/03/14 00:26:01;;;;;;;6.58;4.40;;;;;;;5.02;30.78;97445.67;1727792;81;21032;-78
2022/03/14 00:28:27;;;;;;;4.83;4.25;;;;;;;5.08;30.25;97443.92;1742978;80;21435;-78
2022/03/14 00:30:53;;;;;;;5.60;4.45;;;;;;;5.10;30.85;97442.86;1760979;80;21278;-78
2022/03/14 00:33:19;;;;;;;4.90;3.72;;;;;;;5.08;31.42;97443.45;1733897;81;20992;-78
2022/03/14 00:35:44;;;;;;;6.20;4.45;;;;;;;4.99;30.77;97442.88;1735831;80;21473;-78
2022/03/14 00:38:10;;;;;;;6.60;4.25;;;;;;;4.92;31.04;97444.78;1779978;80;20975;-78
2022/03/14 00:40:36;;;;;;;5.45;3.95;;;;;;;4.83;31.65;97441.97;1766687;80;21095;-78
2022/03/14 00:43:02;;;;;;;5.87;4.45;;;;;;;4.77;31.88;97447.61;1757841;80;21052;-78
2022/03/14 00:45:28;;;;;;;6.55;4.78;;;;;;;4.68;31.65;97446.21;1712256;80;21021;-78
2022/03/14 00:47:53;;;;;;;5.78;4.40;;;;;;;4.57;32.44;97454.78;1732514;81;21388;-78
2022/03/14 00:50:20;;;;;;;5.53;3.72;;;;;;;4.46;33.75;97458.64;1766562;81;20982;-78
2022/03/14 00:52:46;;;;;;;5.33;4.03;;;;;;;4.41;32.15;97458.18;1738009;81;20963;-78
2022/03/14 00:55:12;;;;;;;5.37;4.03;;;;;;;4.39;33.23;97454.87;1739732;81;21340;-78
2022/03/14 00:57:37;;;;;;;7.62;4.75;;;;;;;4.30;33.86;97461.55;1761387;81;20992;-78
2022/03/14 01:00:06;;;;;;;6.00;4.55;;;;;;;4.18;33.38;97458.15;1744592;81;21032;-78
2022/03/14 01:02:31;;;;;;;7.37;3.90;;;;;;;4.10;34.08;97460.49;1742519;81;21046;-78
2022/03/14 01:04:57;;;;;;;5.67;4.58;;;;;;;3.99;34.19;97457.89;1757071;81;21014;-78
2022/03/14 01:07:23;;;;;;;6.47;4.03;;;;;;;3.89;34.86;97463.36;1753267;81;21029;-78
2022/03/14 01:09:48;;;;;;;5.70;4.25;;;;;;;3.77;36.04;97463.00;1764776;81;20989;-78
2022/03/14 01:12:15;;;;;;;5.10;4.40;;;;;;;3.61;36.40;97465.88;1749595;81;21084;-78
2022/03/14 01:14:43;;;;;;;5.00;4.12;;;;;;;3.46;37.67;97470.84;1747095;81;21385;-78
2022/03/14 01:17:09;;;;;;;5.80;4.45;;;;;;;3.30;38.31;97471.13;1758775;81;21029;-78
2022/03/14 01:19:36;;;;;;;7.40;4.78;;;;;;;3.12;38.44;97474.53;1748535;81;21351;-78
2022/03/14 01:22:02;;;;;;;5.97;4.35;;;;;;;2.99;38.43;97477.61;1749431;81;21092;-78
2022/03/14 01:24:28;;;;;;;7.97;4.58;;;;;;;2.90;38.91;97480.80;1717299;82;21025;-78
2022/03/14 01:26:54;;;;;;;6.03;3.85;;;;;;;2.78;39.84;97484.25;1745550;81;20992;-78
2022/03/14 01:29:22;;;;;;;11.73;7.90;;;;;;;2.65;40.54;97485.55;1765649;81;21011;-78
2022/03/14 01:31:48;;;;;;;15.45;9.25;;;;;;;2.50;41.21;97494.30;1757441;81;21069;-78
2022/03/14 01:34:14;;;;;;;8.60;5.83;;;;;;;2.31;41.49;97489.14;1742681;81;21105;-78
2022/03/14 01:36:40;;;;;;;17.73;9.33;;;;;;;2.19;42.03;97489.13;1765450;81;21400;-78
2022/03/14 01:39:06;;;;;;;35.35;19.65;;;;;;;2.04;42.35;97496.09;1763958;81;21030;-78
2022/03/14 01:41:32;;;;;;;34.27;20.92;;;;;;;1.83;41.91;97490.65;1753486;81;21060;-78
2022/03/14 01:43:59;;;;;;;31.50;17.35;;;;;;;1.66;42.76;97496.88;1749985;81;21123;-78
2022/03/14 01:46:25;;;;;;;15.50;10.40;;;;;;;1.52;43.47;97490.53;1754717;81;21180;-78
2022/03/14 01:48:52;;;;;;;10.00;5.33;;;;;;;1.40;43.79;97493.87;1748865;82;21040;-78
2022/03/14 01:51:20;;;;;;;8.93;5.10;;;;;;;1.28;44.79;97497.20;1729155;82;21036;-78
2022/03/14 01:53:45;;;;;;;7.62;5.20;;;;;;;1.18;45.35;97494.42;1739868;82;21388;-78
2022/03/14 01:56:14;;;;;;;7.33;5.33;;;;;;;1.13;45.35;97493.41;1741133;82;21065;-78
2022/03/14 01:58:40;;;;;;;10.70;6.03;;;;;;;1.08;45.78;97498.45;1741194;82;21487;-78
2022/03/14 02:01:06;;;;;;;8.10;5.33;;;;;;;1.03;45.76;97497.47;1718556;82;20982;-78
2022/03/14 02:03:31;;;;;;;10.63;5.83;;;;;;;1.05;45.97;97505.05;1686015;84;21014;-78
2022/03/14 02:05:58;;;;;;;10.90;5.55;;;;;;;1.01;45.47;97495.93;1733919;82;20978;-77
2022/03/14 02:08:24;;;;;;;6.85;5.22;;;;;;;0.99;45.67;97503.70;1740590;82;21021;-78
2022/03/14 02:10:50;;;;;;;6.83;5.25;;;;;;;1.01;45.84;97506.98;1747410;82;21002;-78
2022/03/14 02:13:16;;;;;;;7.95;5.65;;;;;;;1.03;45.33;97507.70;1690058;82;21376;-78
2022/03/14 02:15:45;;;;;;;7.35;5.45;;;;;;;1.06;44.77;97506.69;1739572;81;21199;-77
2022/03/14 02:18:11;;;;;;;8.35;5.47;;;;;;;1.05;45.20;97503.31;1746963;82;21369;-78
2022/03/14 02:20:36;;;;;;;8.18;5.15;;;;;;;1.04;45.61;97497.83;1743801;82;21058;-78
2022/03/14 02:23:02;;;;;;;7.22;5.10;;;;;;;1.01;45.99;97500.59;1742016;82;21057;-78
2022/03/14 02:25:28;;;;;;;7.12;5.37;;;;;;;0.98;46.46;97499.97;1741207;82;21083;-77
2022/03/14 02:27:54;;;;;;;7.37;4.90;;;;;;;0.95;45.89;97494.55;1692452;82;21054;-78
2022/03/14 02:30:22;;;;;;;5.72;4.72;;;;;;;0.95;45.68;97502.23;1732237;82;20981;-78
2022/03/14 02:32:47;;;;;;;7.62;6.00;;;;;;;0.92;45.03;97497.30;1733306;82;20998;-77
2022/03/14 02:35:13;;;;;;;7.75;5.00;;;;;;;0.98;45.63;97499.97;1719013;82;21006;-78
2022/03/14 02:37:39;;;;;;;10.43;7.33;;;;;;;0.96;45.72;97503.05;1731684;82;21021;-78
2022/03/14 02:40:06;;;;;;;17.82;11.68;;;;;;;1.08;43.92;97506.95;1742367;82;20950;-78
2022/03/14 02:42:33;;;;;;;11.75;7.55;;;;;;;1.10;44.11;97507.67;1744976;82;20982;-78
2022/03/14 02:45:00;;;;;;;8.83;6.40;;;;;;;1.12;44.74;97501.18;1715187;82;21026;-78
2022/03/14 02:47:26;;;;;;;12.30;7.95;;;;;;;1.13;43.21;97497.70;1751444;81;21075;-78
2022/03/14 02:49:52;;;;;;;8.25;6.62;;;;;;;1.27;43.19;97507.91;1751712;81;22144;-78
2022/03/14 02:52:19;;;;;;;9.90;6.72;;;;;;;1.40;41.95;97506.67;1738697;82;21016;-77
2022/03/14 02:54:45;;;;;;;14.55;9.73;;;;;;;1.47;43.53;97501.08;1730956;82;20996;-78
2022/03/14 02:57:11;;;;;;;7.35;5.58;;;;;;;1.48;42.94;97508.30;1740466;82;20964;-78
2022/03/14 02:59:37;;;;;;;9.65;7.08;;;;;;;1.44;44.55;97514.52;1681564;82;21019;-78
2022/03/14 03:02:04;;;;;;;8.45;6.33;;;;;;;1.45;42.79;97509.75;1733033;82;21422;-77
2022/03/14 03:04:30;;;;;;;8.45;5.85;;;;;;;1.46;44.02;97510.97;1727540;82;20973;-78
2022/03/14 03:06:57;;;;;;;10.38;7.30;;;;;;;1.43;41.85;97507.75;1725237;82;22189;-78
2022/03/14 03:09:26;;;;;;;13.10;8.75;;;;;;;1.71;40.61;97507.63;1704242;83;21044;-78
2022/03/14 03:11:50;;;;;;;9.88;7.78;;;;;;;1.86;40.42;97510.13;1742160;82;21530;-78
2022/03/14 03:14:16;;;;;;;15.28;10.25;;;;;;;2.09;39.88;97513.27;1731280;82;21050;-78
2022/03/14 03:16:43;;;;;;;22.20;13.03;;;;;;;2.14;41.01;97519.39;1734612;82;21041;-78
2022/03/14 03:19:09;;;;;;;24.27;13.10;;;;;;;2.01;40.58;97522.76;1748035;82;21371;-78
2022/03/14 03:21:39;;;;;;;26.42;15.93;;;;;;;1.87;39.87;97521.55;1741363;82;21048;-78
2022/03/14 03:24:03;;;;;;;22.67;12.93;;;;;;;1.83;40.06;97525.70;1750848;81;21057;-78
2022/03/14 03:26:29;;;;;;;22.85;13.60;;;;;;;1.75;41.88;97529.56;1732807;82;21376;-78
2022/03/14 03:28:55;;;;;;;16.23;9.85;;;;;;;1.71;40.59;97525.57;1744733;82;21016;-78
2022/03/14 03:31:20;;;;;;;16.70;10.72;;;;;;;1.65;41.90;97532.38;1738189;82;21418;-77
2022/03/14 03:33:49;;;;;;;19.30;12.40;;;;;;;1.56;43.31;97529.58;1734282;82;20949;-78
2022/03/14 03:36:14;;;;;;;21.87;13.38;;;;;;;1.38;43.20;97529.82;1746918;82;21056;-77
2022/03/14 03:38:40;;;;;;;34.25;20.23;;;;;;;1.33;42.17;97533.14;1749109;82;21036;-77
2022/03/14 03:41:06;;;;;;;32.83;19.50;;;;;;;1.26;42.50;97542.56;1742019;82;20996;-77
2022/03/14 03:43:32;;;;;;;36.05;20.75;;;;;;;1.13;42.59;97542.04;1732635;81;21399;-78
2022/03/14 03:45:58;;;;;;;25.23;15.13;;;;;;;1.01;43.73;97541.54;1739270;82;21064;-77
2022/03/14 03:48:24;;;;;;;27.95;16.80;;;;;;;0.92;44.40;97545.92;1693276;82;21015;-78
2022/03/14 03:50:49;;;;;;;25.85;16.73;;;;;;;0.86;43.19;97547.59;1724369;82;21358;-77
2022/03/14 03:53:15;;;;;;;32.38;18.77;;;;;;;0.84;43.85;97546.41;1730470;82;21433;-78
2022/03/14 03:55:41;;;;;;;30.20;17.07;;;;;;;0.79;43.60;97545.84;1702910;82;21448;-78
2022/03/14 03:58:07;;;;;;;31.37;18.15;;;;;;;0.79;43.00;97553.98;1721245;82;21035;-78
2022/03/14 04:00:33;;;;;;;31.42;17.52;;;;;;;0.74;43.38;97552.98;1726184;82;20994;-78
2022/03/14 04:02:59;;;;;;;34.70;18.98;;;;;;;0.68;44.44;97552.54;1701995;82;21400;-78
2022/03/14 04:05:27;;;;;;;29.95;19.00;;;;;;;0.62;43.90;97561.38;1711631;81;20972;-78
2022/03/14 04:08:00;;;;;;;32.70;18.15;;;;;;;0.59;44.39;97561.11;1722028;82;22029;-77
2022/03/14 04:10:27;;;;;;;27.13;16.70;;;;;;;0.54;44.35;97555.46;1735355;82;21003;-78
2022/03/14 04:12:52;;;;;;;29.80;17.10;;;;;;;0.52;43.88;97564.14;1701330;82;22180;-77
2022/03/14 04:15:18;;;;;;;26.87;16.27;;;;;;;0.50;42.98;97572.36;1695325;82;21556;-78
2022/03/14 04:17:44;;;;;;;25.25;16.15;;;;;;;0.54;43.65;97572.54;1733587;82;21066;-77
2022/03/14 04:20:12;;;;;;;27.13;16.80;;;;;;;0.55;43.59;97580.58;1714009;82;21401;-77
2022/03/14 04:22:38;;;;;;;25.20;14.73;;;;;;;0.55;43.60;97581.40;1733250;82;21093;-78
2022/03/14 04:25:06;;;;;;;23.83;14.55;;;;;;;0.51;44.48;97579.94;1716143;82;21053;-78
2022/03/14 04:27:33;;;;;;;25.97;15.20;;;;;;;0.46;43.90;97580.64;1676690;84;20954;-77
2022/03/14 04:29:58;;;;;;;23.07;14.28;;;;;;;0.45;44.31;97577.72;1705103;82;21090;-78
2022/03/14 04:32:24;;;;;;;20.48;13.88;;;;;;;0.43;44.45;97579.55;1675562;84;21435;-78
2022/03/14 04:34:50;;;;;;;16.73;10.35;;;;;;;0.42;44.38;97585.58;1730770;82;21051;-78
2022/03/14 04:37:16;;;;;;;12.88;9.45;;;;;;;0.41;45.39;97581.38;1703534;82;21086;-77
2022/03/14 04:39:42;;;;;;;14.28;10.43;;;;;;;0.42;45.36;97582.20;1712216;82;20967;-78
2022/03/14 04:42:09;;;;;;;9.33;8.05;;;;;;;0.43;45.16;97580.01;1724459;82;21046;-77
2022/03/14 04:44:36;;;;;;;14.55;9.23;;;;;;;0.41;45.72;97580.10;1748215;81;21009;-78
2022/03/14 04:47:02;;;;;;;10.15;7.78;;;;;;;0.43;45.38;97578.27;1713021;82;21384;-77
2022/03/14 04:49:28;;;;;;;18.17;10.35;;;;;;;0.45;45.97;97571.79;1746363;81;21072;-77
2022/03/14 04:51:55;;;;;;;9.05;7.30;;;;;;;0.45;46.47;97573.89;1746234;81;21077;-77
2022/03/14 04:54:22;;;;;;;8.73;6.87;;;;;;;0.48;45.45;97572.88;1744602;81;20961;-78
2022/03/14 04:56:49;;;;;;;8.80;7.30;;;;;;;0.52;45.55;97581.59;1742816;81;21095;-77
2022/03/14 04:59:14;;;;;;;11.30;7.28;;;;;;;0.53;44.31;97575.55;1743374;82;20970;-78
2022/03/14 05:01:40;;;;;;;12.07;8.58;;;;;;;0.60;44.51;97579.84;1755087;81;21048;-77
2022/03/14 05:04:06;;;;;;;13.00;10.40;;;;;;;0.62;44.10;97579.75;1747797;81;20971;-77
2022/03/14 05:06:32;;;;;;;19.73;12.28;;;;;;;0.65;44.11;97584.67;1740902;81;21335;-78
2022/03/14 05:08:59;;;;;;;15.83;11.68;;;;;;;0.67;43.46;97582.41;1746235;81;21004;-77
2022/03/14 05:11:26;;;;;;;21.10;11.65;;;;;;;0.71;43.00;97581.77;1749412;81;21018;-77
2022/03/14 05:13:52;;;;;;;14.60;10.70;;;;;;;0.77;42.37;97581.39;1755519;81;21015;-77
2022/03/14 05:16:19;;;;;;;18.07;12.37;;;;;;;0.75;43.37;97568.70;1725698;81;21023;-77
2022/03/14 05:18:46;;;;;;;17.62;11.95;;;;;;;0.79;43.31;97577.00;1750971;81;20981;-77
2022/03/14 05:21:13;;;;;;;19.77;12.90;;;;;;;0.69;44.43;97573.37;1734806;82;21006;-77
2022/03/14 05:23:39;;;;;;;21.42;13.18;;;;;;;0.73;43.30;97586.33;1738209;81;21328;-77
2022/03/14 05:26:05;;;;;;;18.10;12.03;;;;;;;0.72;43.28;97589.34;1764322;81;21016;-77
2022/03/14 05:28:30;;;;;;;17.80;10.58;;;;;;;0.75;43.38;97592.18;1759797;81;21018;-78
2022/03/14 05:30:56;;;;;;;14.90;11.08;;;;;;;0.78;43.20;97585.59;1762831;81;20992;-78
2022/03/14 05:33:22;;;;;;;12.43;9.18;;;;;;;0.82;43.92;97584.52;1733948;82;21375;-77
2022/03/14 05:35:48;;;;;;;8.65;7.12;;;;;;;0.85;43.33;97586.89;1757758;81;21063;-78
2022/03/14 05:38:14;;;;;;;6.87;5.37;;;;;;;0.95;41.24;97578.19;1768834;81;21080;-77
2022/03/14 05:40:40;;;;;;;7.70;6.22;;;;;;;1.19;41.65;97585.66;1761617;81;21439;-77
2022/03/14 05:43:07;;;;;;;8.43;6.35;;;;;;;1.51;41.51;97587.51;1756743;82;20961;-77
2022/03/14 05:45:33;;;;;;;7.30;6.20;;;;;;;1.80;39.66;97598.02;1757060;81;21463;-77
2022/03/14 05:47:59;;;;;;;9.33;6.90;;;;;;;2.09;38.02;97583.77;1750312;81;21005;-77
2022/03/14 05:50:25;;;;;;;6.97;6.20;;;;;;;2.42;37.17;97592.28;1740845;81;20933;-77
2022/03/14 05:52:52;;;;;;;7.70;6.67;;;;;;;2.83;35.43;97592.09;1718874;82;21401;-77
2022/03/14 05:55:18;;;;;;;7.90;7.03;;;;;;;3.12;36.47;97592.67;1740727;81;21046;-77
2022/03/14 05:57:45;;;;;;;7.60;6.80;;;;;;;3.25;36.66;97599.89;1740894;81;21442;-77
2022/03/14 06:00:12;;;;;;;8.85;6.05;;;;;;;3.34;36.31;97597.12;1740798;82;21049;-77
2022/03/14 06:02:38;;;;;;;9.40;7.22;;;;;;;3.39;35.46;97609.18;1735253;82;20977;-77
2022/03/14 06:05:05;;;;;;;7.37;6.00;;;;;;;3.53;36.14;97601.33;1735484;82;21368;-77
2022/03/14 06:07:31;;;;;;;6.70;6.00;;;;;;;3.57;35.33;97614.31;1740549;82;20996;-77
2022/03/14 06:09:57;;;;;;;8.83;6.90;;;;;;;3.69;35.08;97594.64;1738426;82;21035;-77
2022/03/14 06:12:28;;;;;;;7.72;6.12;;;;;;;3.77;36.20;97613.39;1740404;82;21033;-77
2022/03/14 06:14:56;;;;;;;6.72;5.55;;;;;;;3.81;35.26;97600.66;1731446;81;21474;-78
2022/03/14 06:17:22;;;;;;;8.30;6.08;;;;;;;3.89;34.86;97607.34;1729310;82;21014;-77
2022/03/14 06:19:49;;;;;;;8.80;6.60;;;;;;;3.97;34.67;97597.81;1741007;82;21027;-77
2022/03/14 06:22:21;;;;;;;5.62;4.87;;;;;;;4.02;34.26;97608.11;1741032;82;21333;-77
2022/03/14 06:24:47;;;;;;;6.08;5.00;;;;;;;4.11;33.67;97611.31;1719540;82;21005;-78
2022/03/14 06:27:22;;;;;;;7.92;5.25;;;;;;;4.18;32.90;97606.53;1731285;81;20981;-78
2022/03/14 06:29:48;;;;;;;7.75;5.47;;;;;;;4.30;32.95;97598.39;1737082;82;21449;-78
2022/03/14 06:32:14;;;;;;;7.08;5.47;;;;;;;4.38;34.01;97601.20;1736746;81;21017;-78
2022/03/14 06:34:40;;;;;;;6.33;5.12;;;;;;;4.42;33.79;97614.22;1749654;80;21324;-78
2022/03/14 06:37:09;;;;;;;7.37;5.12;;;;;;;4.44;33.66;97615.75;1748406;81;20981;-78
2022/03/14 06:39:38;;;;;;;6.95;5.10;;;;;;;4.51;33.21;97613.52;1740931;82;20918;-78
2022/03/14 06:42:09;;;;;;;7.25;5.37;;;;;;;4.58;33.26;97607.00;1742189;81;20963;-78
2022/03/14 06:44:41;;;;;;;6.12;4.90;;;;;;;4.67;33.16;97611.45;1752291;81;20982;-78
2022/03/14 06:47:10;;;;;;;6.20;4.90;;;;;;;4.74;32.82;97623.41;1743210;81;21149;-78
2022/03/14 06:49:37;;;;;;;6.72;5.12;;;;;;;4.80;32.40;97617.79;1736010;81;21427;-78
2022/03/14 06:52:05;;;;;;;5.83;5.00;;;;;;;4.89;32.69;97602.13;1740500;82;20989;-78
2022/03/14 06:54:30;;;;;;;5.90;4.50;;;;;;;4.94;32.51;97607.27;1741197;81;21045;-78
2022/03/14 06:56:56;;;;;;;6.25;4.83;;;;;;;4.98;32.61;97615.11;1734293;81;21042;-78
2022/03/14 06:59:22;;;;;;;6.45;5.20;;;;;;;5.04;31.68;97605.64;1736256;81;20995;-78
2022/03/14 07:01:48;;;;;;;6.35;3.67;;;;;;;5.10;31.88;97610.31;1736482;82;21453;-78
2022/03/14 07:04:13;;;;;;;5.10;4.20;;;;;;;5.18;31.21;97615.33;1736728;81;21034;-78
2022/03/14 07:06:39;;;;;;;6.25;4.55;;;;;;;5.23;32.02;97626.12;1733016;82;21026;-78
2022/03/14 07:09:05;;;;;;;7.62;4.22;;;;;;;5.28;32.78;97623.54;1741299;81;21009;-78
2022/03/14 07:11:31;;;;;;;5.42;4.40;;;;;;;5.37;32.35;97630.58;1741511;81;21444;-78
2022/03/14 07:13:57;;;;;;;5.45;4.40;;;;;;;5.48;31.84;97625.03;1740390;81;21016;-78
2022/03/14 07:16:23;;;;;;;6.42;3.87;;;;;;;5.57;31.91;97634.17;1738283;82;21041;-80
2022/03/14 07:18:50;;;;;;;4.85;4.03;;;;;;;5.69;31.66;97635.80;1736106;81;20997;-79
2022/03/14 07:21:17;;;;;;;5.30;3.70;;;;;;;5.81;32.13;97647.36;1730294;81;21392;-79
2022/03/14 07:23:44;;;;;;;4.22;3.42;;;;;;;5.90;32.30;97642.80;1747835;82;20977;-79
2022/03/14 07:26:10;;;;;;;5.05;3.55;;;;;;;5.95;32.81;97649.23;1741315;82;20992;-78
2022/03/14 07:28:36;;;;;;;4.40;3.58;;;;;;;6.00;30.93;97651.44;1738752;81;20969;-78
2022/03/14 07:31:02;;;;;;;4.15;3.17;;;;;;;6.10;31.72;97654.94;1744832;81;21380;-78
2022/03/14 07:33:28;;;;;;;5.15;4.12;;;;;;;6.18;32.03;97659.47;1742063;81;20938;-78
2022/03/14 07:35:55;;;;;;;5.90;3.90;;;;;;;6.24;32.41;97657.23;1741274;82;20966;-79
2022/03/14 07:38:21;;;;;;;4.65;3.65;;;;;;;6.31;32.65;97666.58;1721404;82;20981;-78
2022/03/14 07:40:46;;;;;;;5.97;3.47;;;;;;;6.38;32.30;97675.48;1727955;81;21285;-79
2022/03/14 07:43:12;;;;;;;3.70;3.20;;;;;;;6.48;31.41;97679.41;1714386;81;20941;-79
2022/03/14 07:45:38;;;;;;;4.50;3.83;;;;;;;6.58;31.75;97676.44;1728335;81;21002;-79
2022/03/14 07:48:04;;;;;;;5.08;3.95;;;;;;;6.70;32.18;97673.34;1731735;82;21429;-79
2022/03/14 07:50:31;;;;;;;5.03;3.45;;;;;;;6.78;33.00;97676.91;1733664;82;20985;-79
2022/03/14 07:52:56;;;;;;;4.47;3.52;;;;;;;6.81;33.72;97675.36;1743576;82;22118;-79
2022/03/14 07:55:22;;;;;;;4.22;3.45;;;;;;;6.79;32.79;97671.27;1743920;82;20994;-79
2022/03/14 07:57:48;;;;;;;4.17;3.77;;;;;;;6.83;32.99;97673.94;1743415;82;21285;-79
2022/03/14 08:00:16;;;;;;;5.05;3.05;;;;;;;6.91;32.98;97675.44;1743892;82;20961;-79
2022/03/14 08:02:43;;;;;;;3.98;3.25;;;;;;;6.98;32.80;97674.44;1743783;82;21066;-78
2022/03/14 08:05:09;;;;;;;5.83;3.22;;;;;;;7.05;33.46;97676.41;1743645;82;21008;-79
2022/03/14 08:07:35;;;;;;;4.22;3.35;;;;;;;7.14;32.95;97679.49;1743530;82;21348;-79
2022/03/14 08:10:12;;;;;;;6.00;3.65;;;;;;;7.22;32.63;97677.09;1743659;82;20974;-78
2022/03/14 08:12:49;;;;;;;3.95;3.22;;;;;;;7.30;32.42;97671.74;1666431;84;21091;-79
2022/03/14 08:15:24;;;;;;;5.08;4.20;;;;;;;7.36;32.69;97681.59;1660204;85;21087;-79
2022/03/14 08:17:52;;;;;;;3.72;3.20;;;;;;;7.46;32.42;97683.72;1638974;86;21028;-79
2022/03/14 08:20:19;;;;;;;3.65;3.30;;;;;;;7.57;32.79;97684.92;1641106;86;21119;-79
2022/03/14 08:22:45;;;;;;;5.75;3.72;;;;;;;7.65;32.52;97684.28;1667402;86;20968;-79
2022/03/14 08:25:11;;;;;;;4.58;3.20;;;;;;;7.69;32.47;97681.30;1667148;86;21086;-79
2022/03/14 08:27:38;;;;;;;7.72;4.05;;;;;;;7.81;32.24;97691.08;1667032;86;21055;-79
2022/03/14 08:30:07;;;;;;;5.25;3.33;;;;;;;7.88;32.14;97695.23;1661150;86;21011;-78
2022/03/14 08:32:34;;;;;;;4.30;3.52;;;;;;;7.96;32.62;97697.96;1661246;85;21449;-78
2022/03/14 08:35:06;;;;;;;5.47;3.33;;;;;;;8.03;32.07;97692.61;1659493;85;21067;-79
2022/03/14 08:37:30;;;;;;;3.95;3.30;;;;;;;8.08;31.79;97699.02;1663936;86;21059;-79
2022/03/14 08:39:56;;;;;;;5.97;4.22;;;;;;;8.12;31.97;97695.20;1661759;86;21403;-78
2022/03/14 08:42:22;;;;;;;7.10;3.65;;;;;;;8.18;31.46;97699.52;1664128;86;21095;-79
2022/03/14 08:44:48;;;;;;;5.28;4.00;;;;;;;8.20;31.83;97702.31;1663063;86;21043;-79
2022/03/14 08:47:13;;;;;;;5.72;3.95;;;;;;;8.27;32.00;97693.03;1662588;86;21079;-79
2022/03/14 08:49:39;;;;;;;4.28;3.75;;;;;;;8.35;32.09;97697.59;1634289;85;21426;-79
2022/03/14 08:52:06;;;;;;;5.60;3.92;;;;;;;8.43;32.05;97694.64;1673149;84;20991;-79
2022/03/14 08:54:32;;;;;;;5.53;4.58;;;;;;;8.51;31.60;97700.94;1667973;86;20968;-79
2022/03/14 08:56:58;;;;;;;5.58;3.87;;;;;;;8.54;31.53;97702.77;1667858;86;21362;-79
2022/03/14 08:59:24;;;;;;;5.55;4.15;;;;;;;8.60;31.52;97704.80;1661510;84;21014;-79
2022/03/14 09:01:50;;;;;;;4.83;4.10;;;;;;;8.67;31.46;97705.09;1672573;85;21090;-79
2022/03/14 09:04:16;;;;;;;4.58;3.33;;;;;;;8.74;31.56;97698.39;1742635;82;21017;-79
2022/03/14 09:06:43;;;;;;;6.15;4.65;;;;;;;8.78;31.37;97704.92;1746463;82;21384;-80
2022/03/14 09:09:09;;;;;;;7.10;4.58;;;;;;;8.82;31.67;97699.83;1746694;82;21061;-79
2022/03/14 09:11:34;;;;;;;5.67;4.17;;;;;;;8.87;31.26;97700.22;1746638;82;21120;-79
2022/03/14 09:14:00;;;;;;;5.45;3.95;;;;;;;8.93;31.07;97694.47;1745910;81;21376;-79
2022/03/14 09:16:26;;;;;;;5.28;4.10;;;;;;;9.02;31.74;97698.02;1746075;81;21020;-79
2022/03/14 09:18:52;;;;;;;6.42;3.70;;;;;;;9.11;31.38;97705.41;1746773;81;20986;-79
2022/03/14 09:21:19;;;;;;;4.50;3.62;;;;;;;9.17;31.14;97705.69;1746805;82;20985;-79
2022/03/14 09:23:45;;;;;;;5.87;4.28;;;;;;;9.19;31.10;97706.84;1746572;82;20970;-79
2022/03/14 09:26:11;;;;;;;4.92;3.47;;;;;;;9.24;31.40;97708.53;1746496;82;20977;-79
2022/03/14 09:28:39;;;;;;;4.47;3.42;;;;;;;9.30;31.16;97706.20;1742305;81;20938;-79
2022/03/14 09:31:05;;;;;;;6.03;3.47;;;;;;;9.38;31.28;97714.56;1744668;81;20990;-79
2022/03/14 09:33:30;;;;;;;3.08;2.50;;;;;;;9.41;31.28;97707.79;1745278;82;20953;-79
2022/03/14 09:35:56;;;;;;;4.25;3.25;;;;;;;9.48;31.24;97715.84;1739838;82;21484;-79
2022/03/14 09:38:22;;;;;;;4.10;3.08;;;;;;;9.57;31.07;97716.27;1744409;81;20974;-79
2022/03/14 09:40:48;;;;;;;3.80;2.72;;;;;;;9.62;30.72;97717.97;1741473;80;20930;-79
2022/03/14 09:43:16;;;;;;;4.45;3.30;;;;;;;9.66;30.99;97722.39;1741586;81;20922;-79
2022/03/14 09:45:43;;;;;;;3.60;2.60;;;;;;;9.72;31.35;97717.91;1743992;81;20994;-79
2022/03/14 09:48:09;;;;;;;4.72;3.05;;;;;;;9.78;31.12;97719.95;1734171;81;21065;-80
2022/03/14 09:50:39;;;;;;;5.58;3.15;;;;;;;9.85;31.32;97717.11;1739522;81;21013;-79
2022/03/14 09:53:07;;;;;;;4.80;3.15;;;;;;;9.91;30.91;97716.03;1693053;83;20991;-79
2022/03/14 09:55:41;;;;;;;4.17;3.58;;;;;;;9.97;30.96;97715.95;1755502;81;21028;-79
2022/03/14 09:58:04;;;;;;;6.13;3.50;;;;;;;10.05;31.11;97720.41;1754802;79;21021;-79
2022/03/14 10:00:30;;;;;;;6.28;3.42;;;;;;;10.15;30.99;97730.27;1718005;82;21571;-80
2022/03/14 10:02:56;;;;;;;5.85;4.05;;;;;;;10.20;31.08;97735.84;1751441;82;20984;-79
2022/03/14 10:05:22;;;;;;;4.85;3.72;;;;;;;10.23;30.83;97732.97;1754481;81;20983;-79
2022/03/14 10:07:47;;;;;;;4.58;2.98;;;;;;;10.29;30.81;97731.11;1754058;82;20985;-80
2022/03/14 10:10:14;;;;;;;4.00;3.45;;;;;;;10.39;30.74;97736.22;1746898;81;21355;-79
2022/03/14 10:12:42;;;;;;;6.92;4.35;;;;;;;10.40;30.43;97737.86;1747339;81;20980;-79
2022/03/14 10:15:09;;;;;;;4.80;3.72;;;;;;;10.42;30.79;97732.88;1673353;83;21144;-79
2022/03/14 10:17:35;;;;;;;5.65;3.33;;;;;;;10.48;30.77;97732.75;1746562;82;21048;-79
2022/03/14 10:20:02;;;;;;;3.87;3.40;;;;;;;10.51;30.77;97729.37;1752772;81;21411;-79
2022/03/14 10:22:39;;;;;;;4.65;3.60;;;;;;;10.58;30.29;97727.49;1721575;82;20993;-80
2022/03/14 10:25:13;;;;;;;4.28;3.20;;;;;;;10.61;30.30;97729.31;1718274;82;20953;-79
2022/03/14 10:27:45;;;;;;;4.75;3.10;;;;;;;10.67;30.22;97736.98;1753074;81;21317;-79
2022/03/14 10:30:27;;;;;;;4.28;3.22;;;;;;;10.72;30.48;97727.76;1727482;81;20945;-79
2022/03/14 10:33:16;;;;;;;4.60;2.90;;;;;;;10.79;30.67;97723.61;1754023;80;21375;-79
2022/03/14 10:35:42;;;;;;;4.35;3.08;;;;;;;10.88;30.73;97716.67;1741870;82;21360;-79
2022/03/14 10:38:11;;;;;;;3.72;2.67;;;;;;;10.94;30.55;97725.68;1740004;82;21379;-77
2022/03/14 10:40:45;;;;;;;4.42;3.00;;;;;;;10.98;30.60;97727.81;1735894;81;21352;-77
2022/03/14 10:43:31;;;;;;;5.20;3.10;;;;;;;11.04;30.66;97728.50;1743520;81;20996;-77
2022/03/14 10:45:58;;;;;;;3.75;2.98;;;;;;;11.11;30.17;97713.94;1744087;81;21057;-77
2022/03/14 10:48:43;;;;;;;4.85;2.90;;;;;;;11.15;30.53;97713.14;1739776;81;21566;-77
2022/03/14 10:51:11;;;;;;;3.42;3.08;;;;;;;11.19;30.81;97713.64;1746675;81;21278;-77
2022/03/14 10:53:42;;;;;;;4.47;3.25;;;;;;;11.26;31.07;97707.70;1742477;81;21471;-77
2022/03/14 10:56:08;;;;;;;5.35;3.60;;;;;;;11.32;30.89;97707.06;1730658;81;21410;-77
2022/03/14 10:58:34;;;;;;;4.42;3.15;;;;;;;11.40;30.71;97704.52;1740172;81;21056;-77
2022/03/14 11:01:04;;;;;;;7.20;3.72;;;;;;;11.46;30.26;97702.27;1739373;81;20965;-77
2022/03/14 11:03:32;;;;;;;4.00;3.10;;;;;;;11.47;30.40;97709.92;1740965;82;21375;-77
2022/03/14 11:06:06;;;;;;;6.65;3.70;;;;;;;11.56;29.71;97710.30;1747887;82;20988;-77
2022/03/14 11:08:39;;;;;;;4.92;3.15;;;;;;;11.64;29.98;97709.52;1738474;80;21032;-77
2022/03/14 11:11:08;;;;;;;4.70;3.22;;;;;;;11.59;29.47;97711.77;1675069;84;21086;-77
2022/03/14 11:13:45;;;;;;;4.40;3.35;;;;;;;11.59;29.95;97707.87;1687211;84;21352;-77
2022/03/14 11:16:24;;;;;;;3.85;3.15;;;;;;;11.64;29.68;97708.21;1675391;84;21089;-77
2022/03/14 11:18:51;;;;;;;3.95;3.02;;;;;;;11.68;29.81;97699.92;1675349;84;21081;-77
2022/03/14 11:21:19;;;;;;;4.10;3.52;;;;;;;11.68;29.58;97697.80;1681193;83;20994;-77
2022/03/14 11:23:47;;;;;;;4.60;3.65;;;;;;;11.68;29.92;97702.52;1679736;84;20982;-77
2022/03/14 11:26:15;;;;;;;4.20;3.70;;;;;;;11.76;29.73;97695.25;1684351;84;20985;-77
2022/03/14 11:28:42;;;;;;;3.27;2.90;;;;;;;11.78;29.82;97688.09;1689662;84;21317;-78
2022/03/14 11:31:08;;;;;;;4.15;2.90;;;;;;;11.83;29.63;97701.48;1683472;83;20970;-77
2022/03/14 11:33:35;;;;;;;4.25;2.95;;;;;;;11.85;29.24;97691.72;1677325;83;21061;-77
2022/03/14 11:36:03;;;;;;;3.87;3.10;;;;;;;11.89;29.27;97690.45;1690177;83;20949;-78